Yatesville, Pennsylvania
Current Conditions -  °F | °C
As of 11:54 AM on Friday 24 Oct 2014 (Local Time) from KAVP Reporting Station
Clear Clear  
Wind Chill: 60°   Ceiling: Unl
Heat Index: 60°   Visibility: 10mi
Dew Point: 41°   Wind: 17mph
Humidity: 49%   Direction: 340°NNW
Pressure: 29.89"   Gusts: 26mph
Location:  41.2973°N, 75.7399°W
Report Text: KAVP 241554Z AUTO 34015G23KT 10SM CLR 16/05 A2989 RMK AO2 SLP120 T01560050
Loading
Personal Weather Stations






























Interactive Weather Map
Tropical Storm Tracking
New forecast layout! Learn more

10-Day Weather Forecast

Advertisements
Track Severe Weather on mobile